createdAt,value
2023-04-08T00:05:10.789Z,31.30
2023-04-08T00:16:19.508Z,34.10
2023-04-08T00:27:28.674Z,29.20
2023-04-08T00:38:33.614Z,27.50
2023-04-08T00:49:06.728Z,29.00
2023-04-08T00:59:41.975Z,21.50
2023-04-08T01:11:24.038Z,23.90
2023-04-08T01:22:48.350Z,25.90
2023-04-08T01:34:13.242Z,27.40
2023-04-08T01:45:38.001Z,23.40
2023-04-08T01:56:51.589Z,21.10
2023-04-08T02:08:15.903Z,20.70
2023-04-08T02:19:37.682Z,23.30
2023-04-08T02:31:02.085Z,22.60
2023-04-08T02:42:26.430Z,23.80
2023-04-08T02:53:50.711Z,19.50
2023-04-08T03:05:07.639Z,17.10
2023-04-08T03:16:32.065Z,22.30
2023-04-08T03:27:56.427Z,17.40
2023-04-08T03:39:20.943Z,20.00
2023-04-08T03:50:45.903Z,21.50
2023-04-08T04:02:10.612Z,18.40
2023-04-08T04:13:27.370Z,18.80
2023-04-08T04:24:46.378Z,19.40
2023-04-08T04:36:10.892Z,20.10
2023-04-08T04:47:35.448Z,21.70
2023-04-08T04:58:59.990Z,18.70
2023-04-08T05:10:24.470Z,18.70
2023-04-08T05:21:48.870Z,22.00
2023-04-08T05:33:02.439Z,20.50
2023-04-08T05:44:26.997Z,25.70
2023-04-08T05:55:57.279Z,21.30
2023-04-08T06:07:22.688Z,18.90
2023-04-08T06:18:48.536Z,17.60
2023-04-08T06:30:13.654Z,16.20
2023-04-08T06:41:37.955Z,13.70
2023-04-08T06:53:03.710Z,14.60
2023-04-08T07:04:26.794Z,12.60
2023-04-08T07:15:41.977Z,10.10
2023-04-08T07:27:06.605Z,10.40
2023-04-08T07:39:08.315Z,12.60
2023-04-08T07:50:34.323Z,9.40
2023-04-08T08:02:22.250Z,12.30
2023-04-08T08:13:23.075Z,10.80
2023-04-08T08:24:49.471Z,11.50
2023-04-08T08:36:02.835Z,11.10
2023-04-08T08:47:25.894Z,10.70
2023-04-08T08:58:45.619Z,11.60
2023-04-08T09:10:09.456Z,8.20
2023-04-08T09:21:25.923Z,9.30
2023-04-08T09:32:39.957Z,8.70
2023-04-08T09:43:52.492Z,8.10
2023-04-08T09:54:54.770Z,9.20
2023-04-08T10:05:32.583Z,9.60
2023-04-08T10:16:56.507Z,11.60
2023-04-08T10:28:33.309Z,10.20
2023-04-08T10:40:09.612Z,30.30
2023-04-08T10:51:16.910Z,12.90
2023-04-08T11:22:49.032Z,15.30
2023-04-08T11:32:52.457Z,15.10
2023-04-08T11:42:55.973Z,13.80
2023-04-08T11:52:59.801Z,17.50
2023-04-08T12:03:03.522Z,20.40
2023-04-08T12:13:07.356Z,21.70
2023-04-08T12:23:10.557Z,22.10
2023-04-08T12:33:14.617Z,25.90
2023-04-08T12:43:18.081Z,21.70
2023-04-08T12:53:21.816Z,27.80
2023-04-08T13:03:25.327Z,36.50
2023-04-08T13:13:28.803Z,35.30
2023-04-08T13:23:32.189Z,40.30
2023-04-08T13:34:09.484Z,44.20
2023-04-08T13:44:17.317Z,47.10
2023-04-08T13:54:22.797Z,42.50
2023-04-08T14:04:29.684Z,43.50
2023-04-08T14:14:39.036Z,40.70
2023-04-08T14:25:21.517Z,44.40
2023-04-08T14:35:24.786Z,36.50
2023-04-08T14:45:28.496Z,41.70
2023-04-08T14:55:33.641Z,35.30
2023-04-08T15:05:40.585Z,39.40
2023-04-08T15:16:19.403Z,34.90
2023-04-08T15:26:23.108Z,35.90
2023-04-08T15:36:27.763Z,49.20
2023-04-08T15:46:31.473Z,40.30
2023-04-08T15:56:35.064Z,46.80
2023-04-08T16:06:41.989Z,44.90
2023-04-08T16:16:45.697Z,51.30
2023-04-08T16:26:49.455Z,57.50
2023-04-08T16:36:53.764Z,52.00
2023-04-08T16:46:57.079Z,63.20
2023-04-08T16:57:00.562Z,96.70
2023-04-08T17:07:04.223Z,58.30
2023-04-08T17:17:07.924Z,56.80
2023-04-08T17:27:11.425Z,73.30
2023-04-08T17:37:14.552Z,61.50
2023-04-08T17:47:17.786Z,75.30
2023-04-08T17:57:21.570Z,68.60
2023-04-08T18:07:25.085Z,79.20
2023-04-08T18:17:28.387Z,74.20
2023-04-08T18:28:03.540Z,92.00
2023-04-08T18:38:07.109Z,80.30
2023-04-08T18:48:12.609Z,72.80
2023-04-08T18:58:16.633Z,82.30
2023-04-08T19:08:19.845Z,74.90
2023-04-08T19:18:23.464Z,72.60
2023-04-08T19:28:26.753Z,70.00
2023-04-08T19:38:30.834Z,71.70
2023-04-08T19:48:34.933Z,79.40
2023-04-08T19:58:38.315Z,60.20
2023-04-08T20:08:42.981Z,56.90
2023-04-08T20:18:46.309Z,66.80
2023-04-08T20:28:50.850Z,71.10
2023-04-08T20:38:55.346Z,73.60
2023-04-08T20:48:58.551Z,77.10
2023-04-08T20:59:02.155Z,82.90
2023-04-08T21:09:05.405Z,62.90
2023-04-08T21:19:09.485Z,61.60
2023-04-08T21:29:13.034Z,65.20
2023-04-08T21:39:16.278Z,67.30
2023-04-08T21:49:20.172Z,65.40
2023-04-08T21:59:55.647Z,74.50
2023-04-08T22:10:01.703Z,73.00
2023-04-08T22:20:06.710Z,65.20
2023-04-08T22:30:10.788Z,70.90
2023-04-08T22:40:14.245Z,61.50
2023-04-08T22:50:17.968Z,49.70
2023-04-08T23:00:21.449Z,57.70
2023-04-08T23:10:25.885Z,61.40
2023-04-08T23:20:29.104Z,48.20
2023-04-08T23:30:32.590Z,47.40
2023-04-08T23:40:35.908Z,69.30
2023-04-08T23:50:39.415Z,50.20
